• Join FlightAware (Why Join?)
  • Login
  • US Flag 
10:16AM EST


 

Airport Tracker/Info


-or-


 

Live Flight TrackerFlight Track Log ✈ TAM3959 ✈ 26-May-2013 ✈ SBRJ / SDU - SBSP / CGH

Flight Track Log - Related Links

Times and Time Zones

All times are in EDT time to prevent confusion due to time zone crossing. See the TAM3959 flight status page for this flight to view local times or setup timezone preferences in your user account.

Time Position Orientation Groundspeed Altitude Reporting Facility
EDT Latitude Longitude Course Direction KTS MPH feet Rate Location/Type
08:03PM -23.1052 -44.0727 257° West  Level Estimated
08:04PM -23.1226 -44.1555 257° West  Level Estimated
08:05PM -23.1400 -44.2383 257° West  Level Estimated
08:06PM -23.1574 -44.3212 257° West  Level Estimated
08:07PM -23.1747 -44.4041 257° West  Level Estimated
08:08PM -23.1920 -44.4870 257° West  Level Estimated
08:09PM -23.2092 -44.5699 257° West  Level Estimated
08:10PM -23.2264 -44.6528 257° West  Level Estimated
08:11PM -23.2435 -44.7358 257° West  Level Estimated
08:12PM -23.2606 -44.8188 257° West  Level Estimated
08:13PM -23.2777 -44.9018 257° West  Level Estimated
08:14PM -23.2947 -44.9848 257° West  Level Estimated
08:15PM -23.3116 -45.0679 257° West  Level Estimated
08:16PM -23.3286 -45.1510 257° West  Level Estimated
08:17PM -23.3454 -45.2341 258° West  Level Estimated
08:18PM -23.3623 -45.3172 258° West  Level Estimated
08:19PM -23.3791 -45.4003 258° West  Level Estimated
08:20PM -23.3958 -45.4835 258° West  Level Estimated
08:21PM -23.4125 -45.5666 258° West  Level Estimated
08:22PM -23.4292 -45.6498 258° West  Level Estimated
08:23PM -23.4458 -45.7331 258° West  Level Estimated
08:24PM -23.4624 -45.8163 258° West  Level Estimated
08:25PM -23.4789 -45.8996 258° West  Level Estimated
08:26PM -23.4954 -45.9828 258° West  Level Estimated
08:27PM -23.5118 -46.0661 258° West  Level Estimated
08:28PM -23.5282 -46.1495 258° West  Level Estimated
08:29PM -23.5445 -46.2328 258° West  Level Estimated
08:30PM -23.5609 -46.3162 258° West  Level Estimated
08:31PM -23.5771 -46.3996 258° West  Level Estimated
08:32PM -23.5933 -46.4830 258° West  Level Estimated
08:33PM -23.6095 -46.5664 258° West  Level Estimated
08:34PM -23.6256 -46.6498 258° West  Level Estimated
08:35PM -23.6267 -46.6554 258° West  Level Estimated
08:36PM -23.6267 -46.6554 114° Southeast  Level Estimated
08:37PM -23.6267 -46.6554 114° Southeast  Level Estimated
08:38PM -23.6267 -46.6554 114° Southeast  Level Estimated
08:39PM -23.6267 -46.6554 114° Southeast  Level Estimated
08:40PM -23.6267 -46.6554 114° Southeast  Level Estimated
08:41PM -23.6267 -46.6554 114° Southeast  Level Estimated
08:42PM -23.6267 -46.6554 114° Southeast  Level Estimated
08:43PM -23.6267 -46.6554 114° Southeast  Level Estimated
08:44PM -23.6267 -46.6554 114° Southeast  Level Estimated
08:45PM -23.6267 -46.6554 114° Southeast  Level Estimated
08:46PM -23.6267 -46.6554 114° Southeast  Level Estimated
08:47PM -23.6267 -46.6554 114° Southeast  Level Estimated
08:48PM -23.6267 -46.6554 114° Southeast  Level Estimated
08:49PM -23.6267 -46.6554 114° Southeast  Level Estimated
08:50PM -23.6267 -46.6554 114° Southeast  Level Estimated